sensor_id;sensor_type;location;lat;lon;timestamp;P1;durP1;ratioP1;P2;durP2;ratioP2
3627;SDS011;1830;49.000;12.074;2022-07-23T00:01:01;20.13;;;12.98;;
3627;SDS011;1830;49.000;12.074;2022-07-23T00:03:28;15.52;;;12.88;;
3627;SDS011;1830;49.000;12.074;2022-07-23T00:05:54;18.73;;;12.85;;
3627;SDS011;1830;49.000;12.074;2022-07-23T00:08:21;17.48;;;13.13;;
3627;SDS011;1830;49.000;12.074;2022-07-23T00:10:48;17.42;;;13.10;;
3627;SDS011;1830;49.000;12.074;2022-07-23T00:13:15;21.00;;;13.35;;
3627;SDS011;1830;49.000;12.074;2022-07-23T00:15:43;24.30;;;12.75;;
3627;SDS011;1830;49.000;12.074;2022-07-23T00:18:09;20.45;;;13.52;;
3627;SDS011;1830;49.000;12.074;2022-07-23T00:20:36;20.73;;;15.75;;
3627;SDS011;1830;49.000;12.074;2022-07-23T00:23:03;28.05;;;14.68;;
3627;SDS011;1830;49.000;12.074;2022-07-23T00:25:30;36.03;;;16.55;;
3627;SDS011;1830;49.000;12.074;2022-07-23T00:27:57;19.80;;;13.73;;
3627;SDS011;1830;49.000;12.074;2022-07-23T00:30:24;21.45;;;15.40;;
3627;SDS011;1830;49.000;12.074;2022-07-23T00:32:53;17.05;;;15.02;;
3627;SDS011;1830;49.000;12.074;2022-07-23T00:35:22;24.40;;;16.83;;
3627;SDS011;1830;49.000;12.074;2022-07-23T00:37:49;38.70;;;17.33;;
3627;SDS011;1830;49.000;12.074;2022-07-23T00:40:16;18.88;;;16.25;;
3627;SDS011;1830;49.000;12.074;2022-07-23T00:42:43;20.50;;;15.95;;
3627;SDS011;1830;49.000;12.074;2022-07-23T00:45:10;31.23;;;16.55;;
3627;SDS011;1830;49.000;12.074;2022-07-23T00:47:38;29.75;;;16.05;;
3627;SDS011;1830;49.000;12.074;2022-07-23T00:50:07;19.45;;;15.82;;
3627;SDS011;1830;49.000;12.074;2022-07-23T00:52:35;22.63;;;16.20;;
3627;SDS011;1830;49.000;12.074;2022-07-23T00:55:03;21.55;;;15.57;;
3627;SDS011;1830;49.000;12.074;2022-07-23T00:57:32;25.65;;;15.05;;
3627;SDS011;1830;49.000;12.074;2022-07-23T00:59:59;21.95;;;14.55;;
3627;SDS011;1830;49.000;12.074;2022-07-23T01:02:26;28.90;;;17.33;;
3627;SDS011;1830;49.000;12.074;2022-07-23T01:04:53;22.67;;;15.00;;
3627;SDS011;1830;49.000;12.074;2022-07-23T01:07:21;25.70;;;14.75;;
3627;SDS011;1830;49.000;12.074;2022-07-23T01:09:49;21.58;;;16.23;;
3627;SDS011;1830;49.000;12.074;2022-07-23T01:12:17;25.30;;;16.53;;
3627;SDS011;1830;49.000;12.074;2022-07-23T01:14:44;24.83;;;15.13;;
3627;SDS011;1830;49.000;12.074;2022-07-23T01:17:11;20.38;;;15.70;;
3627;SDS011;1830;49.000;12.074;2022-07-23T01:19:38;23.35;;;14.18;;
3627;SDS011;1830;49.000;12.074;2022-07-23T01:22:04;22.45;;;14.60;;
3627;SDS011;1830;49.000;12.074;2022-07-23T01:24:33;22.65;;;14.45;;
3627;SDS011;1830;49.000;12.074;2022-07-23T01:27:00;25.98;;;15.35;;
3627;SDS011;1830;49.000;12.074;2022-07-23T01:29:27;22.40;;;15.63;;
3627;SDS011;1830;49.000;12.074;2022-07-23T01:31:54;34.47;;;16.25;;
3627;SDS011;1830;49.000;12.074;2022-07-23T01:34:20;25.73;;;15.73;;
3627;SDS011;1830;49.000;12.074;2022-07-23T01:36:47;21.13;;;15.37;;
3627;SDS011;1830;49.000;12.074;2022-07-23T01:39:14;18.40;;;15.87;;
3627;SDS011;1830;49.000;12.074;2022-07-23T01:41:42;22.43;;;14.70;;
3627;SDS011;1830;49.000;12.074;2022-07-23T01:44:09;20.67;;;15.80;;
3627;SDS011;1830;49.000;12.074;2022-07-23T01:46:35;19.10;;;15.50;;
3627;SDS011;1830;49.000;12.074;2022-07-23T01:49:04;18.75;;;15.70;;
3627;SDS011;1830;49.000;12.074;2022-07-23T01:51:30;24.77;;;16.63;;
3627;SDS011;1830;49.000;12.074;2022-07-23T01:53:57;21.13;;;15.02;;
3627;SDS011;1830;49.000;12.074;2022-07-23T01:56:24;20.50;;;15.93;;
3627;SDS011;1830;49.000;12.074;2022-07-23T01:58:52;21.33;;;16.90;;
3627;SDS011;1830;49.000;12.074;2022-07-23T02:01:19;19.97;;;15.60;;
3627;SDS011;1830;49.000;12.074;2022-07-23T02:03:45;19.53;;;15.13;;
3627;SDS011;1830;49.000;12.074;2022-07-23T02:06:12;17.70;;;15.85;;
3627;SDS011;1830;49.000;12.074;2022-07-23T02:08:39;18.60;;;14.93;;
3627;SDS011;1830;49.000;12.074;2022-07-23T02:11:05;21.73;;;15.27;;
3627;SDS011;1830;49.000;12.074;2022-07-23T02:13:32;26.00;;;15.47;;
3627;SDS011;1830;49.000;12.074;2022-07-23T02:16:00;28.37;;;15.50;;
3627;SDS011;1830;49.000;12.074;2022-07-23T02:18:27;20.65;;;15.25;;
3627;SDS011;1830;49.000;12.074;2022-07-23T02:20:54;20.10;;;14.50;;
3627;SDS011;1830;49.000;12.074;2022-07-23T02:23:21;26.93;;;14.73;;
3627;SDS011;1830;49.000;12.074;2022-07-23T02:25:47;21.00;;;14.50;;
3627;SDS011;1830;49.000;12.074;2022-07-23T02:28:14;21.20;;;15.27;;
3627;SDS011;1830;49.000;12.074;2022-07-23T02:30:41;19.73;;;14.60;;
3627;SDS011;1830;49.000;12.074;2022-07-23T02:33:09;17.10;;;14.07;;
3627;SDS011;1830;49.000;12.074;2022-07-23T02:35:36;25.50;;;14.20;;
3627;SDS011;1830;49.000;12.074;2022-07-23T02:38:02;18.10;;;14.13;;
3627;SDS011;1830;49.000;12.074;2022-07-23T02:40:29;19.27;;;14.10;;
3627;SDS011;1830;49.000;12.074;2022-07-23T02:42:56;24.00;;;14.93;;
3627;SDS011;1830;49.000;12.074;2022-07-23T02:45:23;18.80;;;13.60;;
3627;SDS011;1830;49.000;12.074;2022-07-23T02:47:50;27.70;;;13.83;;
3627;SDS011;1830;49.000;12.074;2022-07-23T02:50:18;18.77;;;13.20;;
3627;SDS011;1830;49.000;12.074;2022-07-23T02:52:44;18.50;;;12.77;;
3627;SDS011;1830;49.000;12.074;2022-07-23T02:55:11;17.03;;;12.30;;
3627;SDS011;1830;49.000;12.074;2022-07-23T02:57:38;18.17;;;12.50;;
3627;SDS011;1830;49.000;12.074;2022-07-23T03:00:05;21.30;;;12.87;;
3627;SDS011;1830;49.000;12.074;2022-07-23T03:02:33;22.03;;;12.47;;
3627;SDS011;1830;49.000;12.074;2022-07-23T03:05:00;18.60;;;12.10;;
3627;SDS011;1830;49.000;12.074;2022-07-23T03:07:28;15.50;;;11.57;;
3627;SDS011;1830;49.000;12.074;2022-07-23T03:09:55;19.13;;;11.88;;
3627;SDS011;1830;49.000;12.074;2022-07-23T03:12:22;17.80;;;11.53;;
3627;SDS011;1830;49.000;12.074;2022-07-23T03:14:48;25.67;;;12.37;;
3627;SDS011;1830;49.000;12.074;2022-07-23T03:17:15;16.37;;;11.10;;
3627;SDS011;1830;49.000;12.074;2022-07-23T03:19:42;20.43;;;11.20;;
3627;SDS011;1830;49.000;12.074;2022-07-23T03:22:09;15.53;;;11.07;;
3627;SDS011;1830;49.000;12.074;2022-07-23T03:24:37;15.97;;;11.37;;
3627;SDS011;1830;49.000;12.074;2022-07-23T03:27:22;20.00;;;11.60;;
3627;SDS011;1830;49.000;12.074;2022-07-23T03:29:49;13.47;;;11.80;;
3627;SDS011;1830;49.000;12.074;2022-07-23T03:32:17;20.90;;;11.33;;
3627;SDS011;1830;49.000;12.074;2022-07-23T03:34:44;14.10;;;11.43;;
3627;SDS011;1830;49.000;12.074;2022-07-23T03:37:10;15.50;;;11.07;;
3627;SDS011;1830;49.000;12.074;2022-07-23T03:39:38;19.43;;;12.27;;
3627;SDS011;1830;49.000;12.074;2022-07-23T03:42:06;20.83;;;11.53;;
3627;SDS011;1830;49.000;12.074;2022-07-23T03:44:33;18.10;;;12.13;;
3627;SDS011;1830;49.000;12.074;2022-07-23T03:47:01;16.20;;;10.70;;
3627;SDS011;1830;49.000;12.074;2022-07-23T03:49:28;12.50;;;9.00;;
3627;SDS011;1830;49.000;12.074;2022-07-23T03:51:55;13.03;;;8.83;;
3627;SDS011;1830;49.000;12.074;2022-07-23T03:54:22;13.23;;;8.43;;
3627;SDS011;1830;49.000;12.074;2022-07-23T03:56:50;12.80;;;8.30;;
3627;SDS011;1830;49.000;12.074;2022-07-23T03:59:17;13.40;;;7.20;;
3627;SDS011;1830;49.000;12.074;2022-07-23T04:01:44;11.57;;;7.53;;
3627;SDS011;1830;49.000;12.074;2022-07-23T04:04:10;9.93;;;7.77;;
3627;SDS011;1830;49.000;12.074;2022-07-23T04:06:37;10.20;;;8.20;;
3627;SDS011;1830;49.000;12.074;2022-07-23T04:09:04;12.83;;;8.00;;
3627;SDS011;1830;49.000;12.074;2022-07-23T04:11:31;10.27;;;8.23;;
3627;SDS011;1830;49.000;12.074;2022-07-23T04:13:59;16.20;;;8.90;;
3627;SDS011;1830;49.000;12.074;2022-07-23T04:16:25;10.03;;;8.17;;
3627;SDS011;1830;49.000;12.074;2022-07-23T04:18:53;12.30;;;8.40;;
3627;SDS011;1830;49.000;12.074;2022-07-23T04:21:20;11.50;;;7.90;;
3627;SDS011;1830;49.000;12.074;2022-07-23T04:23:47;16.77;;;7.27;;
3627;SDS011;1830;49.000;12.074;2022-07-23T04:26:13;13.23;;;7.27;;
3627;SDS011;1830;49.000;12.074;2022-07-23T04:28:40;11.13;;;7.50;;
3627;SDS011;1830;49.000;12.074;2022-07-23T04:31:09;18.60;;;11.83;;
3627;SDS011;1830;49.000;12.074;2022-07-23T04:33:35;11.47;;;8.07;;
3627;SDS011;1830;49.000;12.074;2022-07-23T04:36:03;11.10;;;7.90;;
3627;SDS011;1830;49.000;12.074;2022-07-23T04:38:30;11.33;;;7.93;;
3627;SDS011;1830;49.000;12.074;2022-07-23T04:40:57;13.67;;;8.37;;
3627;SDS011;1830;49.000;12.074;2022-07-23T04:43:24;12.40;;;8.67;;
3627;SDS011;1830;49.000;12.074;2022-07-23T04:45:51;11.93;;;7.90;;
3627;SDS011;1830;49.000;12.074;2022-07-23T04:48:19;10.17;;;8.73;;
3627;SDS011;1830;49.000;12.074;2022-07-23T04:50:46;14.00;;;8.80;;
3627;SDS011;1830;49.000;12.074;2022-07-23T04:53:13;12.73;;;8.93;;
3627;SDS011;1830;49.000;12.074;2022-07-23T04:55:39;13.80;;;9.70;;
3627;SDS011;1830;49.000;12.074;2022-07-23T04:58:06;14.50;;;9.17;;
3627;SDS011;1830;49.000;12.074;2022-07-23T05:00:33;13.10;;;9.27;;
3627;SDS011;1830;49.000;12.074;2022-07-23T05:03:00;12.70;;;8.20;;
3627;SDS011;1830;49.000;12.074;2022-07-23T05:05:28;11.83;;;8.30;;
3627;SDS011;1830;49.000;12.074;2022-07-23T05:07:54;12.57;;;9.07;;
3627;SDS011;1830;49.000;12.074;2022-07-23T05:10:21;10.90;;;7.90;;
3627;SDS011;1830;49.000;12.074;2022-07-23T05:12:48;11.53;;;8.97;;
3627;SDS011;1830;49.000;12.074;2022-07-23T05:15:15;20.43;;;9.13;;
3627;SDS011;1830;49.000;12.074;2022-07-23T05:17:41;10.70;;;7.90;;
3627;SDS011;1830;49.000;12.074;2022-07-23T05:20:08;14.20;;;7.90;;
3627;SDS011;1830;49.000;12.074;2022-07-23T05:22:37;14.30;;;7.83;;
3627;SDS011;1830;49.000;12.074;2022-07-23T05:25:04;12.43;;;7.30;;
3627;SDS011;1830;49.000;12.074;2022-07-23T05:27:31;12.60;;;6.13;;
3627;SDS011;1830;49.000;12.074;2022-07-23T05:29:58;10.03;;;7.17;;
3627;SDS011;1830;49.000;12.074;2022-07-23T05:32:25;11.80;;;7.30;;
3627;SDS011;1830;49.000;12.074;2022-07-23T05:34:52;11.73;;;7.23;;
3627;SDS011;1830;49.000;12.074;2022-07-23T05:37:19;13.63;;;7.90;;
3627;SDS011;1830;49.000;12.074;2022-07-23T05:39:47;11.60;;;6.63;;
3627;SDS011;1830;49.000;12.074;2022-07-23T05:42:13;10.53;;;6.93;;
3627;SDS011;1830;49.000;12.074;2022-07-23T05:44:40;10.30;;;6.40;;
3627;SDS011;1830;49.000;12.074;2022-07-23T05:47:07;12.50;;;6.70;;
3627;SDS011;1830;49.000;12.074;2022-07-23T05:49:34;11.10;;;7.30;;
3627;SDS011;1830;49.000;12.074;2022-07-23T05:52:03;8.53;;;6.70;;
3627;SDS011;1830;49.000;12.074;2022-07-23T05:54:30;8.33;;;7.13;;
3627;SDS011;1830;49.000;12.074;2022-07-23T05:57:01;11.27;;;7.90;;
3627;SDS011;1830;49.000;12.074;2022-07-23T05:59:27;8.33;;;6.83;;
3627;SDS011;1830;49.000;12.074;2022-07-23T06:01:54;9.40;;;6.30;;
3627;SDS011;1830;49.000;12.074;2022-07-23T06:04:21;9.60;;;6.57;;
3627;SDS011;1830;49.000;12.074;2022-07-23T06:06:48;8.43;;;6.40;;
3627;SDS011;1830;49.000;12.074;2022-07-23T06:09:14;12.60;;;7.33;;
3627;SDS011;1830;49.000;12.074;2022-07-23T06:11:41;14.63;;;7.10;;
3627;SDS011;1830;49.000;12.074;2022-07-23T06:14:09;8.23;;;6.43;;
3627;SDS011;1830;49.000;12.074;2022-07-23T06:16:36;9.33;;;6.97;;
3627;SDS011;1830;49.000;12.074;2022-07-23T06:19:03;8.20;;;6.63;;
3627;SDS011;1830;49.000;12.074;2022-07-23T06:21:30;10.70;;;6.53;;
3627;SDS011;1830;49.000;12.074;2022-07-23T06:23:57;8.63;;;6.70;;
3627;SDS011;1830;49.000;12.074;2022-07-23T06:26:23;9.33;;;6.10;;
3627;SDS011;1830;49.000;12.074;2022-07-23T06:28:50;17.27;;;6.10;;
3627;SDS011;1830;49.000;12.074;2022-07-23T06:31:18;10.00;;;6.20;;
3627;SDS011;1830;49.000;12.074;2022-07-23T06:33:45;8.30;;;6.27;;
3627;SDS011;1830;49.000;12.074;2022-07-23T06:36:12;9.77;;;6.33;;
3627;SDS011;1830;49.000;12.074;2022-07-23T06:38:38;9.90;;;6.90;;
3627;SDS011;1830;49.000;12.074;2022-07-23T06:41:05;8.90;;;6.27;;
3627;SDS011;1830;49.000;12.074;2022-07-23T06:43:32;10.73;;;6.23;;
3627;SDS011;1830;49.000;12.074;2022-07-23T06:45:59;6.90;;;5.93;;
3627;SDS011;1830;49.000;12.074;2022-07-23T06:48:27;8.93;;;6.00;;
3627;SDS011;1830;49.000;12.074;2022-07-23T06:50:54;9.30;;;6.43;;
3627;SDS011;1830;49.000;12.074;2022-07-23T06:53:20;7.90;;;6.00;;
3627;SDS011;1830;49.000;12.074;2022-07-23T06:55:47;11.03;;;6.73;;
3627;SDS011;1830;49.000;12.074;2022-07-23T06:58:14;6.60;;;5.53;;
3627;SDS011;1830;49.000;12.074;2022-07-23T07:00:41;9.30;;;6.23;;
3627;SDS011;1830;49.000;12.074;2022-07-23T07:03:07;8.50;;;6.20;;
3627;SDS011;1830;49.000;12.074;2022-07-23T07:05:35;10.90;;;7.20;;
3627;SDS011;1830;49.000;12.074;2022-07-23T07:08:04;11.90;;;5.90;;
3627;SDS011;1830;49.000;12.074;2022-07-23T07:10:31;6.90;;;6.20;;
3627;SDS011;1830;49.000;12.074;2022-07-23T07:12:58;8.17;;;5.90;;
3627;SDS011;1830;49.000;12.074;2022-07-23T07:15:25;13.80;;;6.53;;
3627;SDS011;1830;49.000;12.074;2022-07-23T07:17:52;7.40;;;5.90;;
3627;SDS011;1830;49.000;12.074;2022-07-23T07:20:18;9.73;;;6.67;;
3627;SDS011;1830;49.000;12.074;2022-07-23T07:22:46;9.40;;;6.40;;
3627;SDS011;1830;49.000;12.074;2022-07-23T07:25:13;6.93;;;5.60;;
3627;SDS011;1830;49.000;12.074;2022-07-23T07:27:40;7.90;;;6.30;;
3627;SDS011;1830;49.000;12.074;2022-07-23T07:30:09;7.73;;;6.30;;
3627;SDS011;1830;49.000;12.074;2022-07-23T07:32:36;8.53;;;6.00;;
3627;SDS011;1830;49.000;12.074;2022-07-23T07:35:03;9.63;;;6.20;;
3627;SDS011;1830;49.000;12.074;2022-07-23T07:37:30;9.47;;;6.00;;
3627;SDS011;1830;49.000;12.074;2022-07-23T07:39:58;8.87;;;6.07;;
3627;SDS011;1830;49.000;12.074;2022-07-23T07:42:25;8.93;;;6.40;;
3627;SDS011;1830;49.000;12.074;2022-07-23T07:44:52;7.03;;;6.20;;
3627;SDS011;1830;49.000;12.074;2022-07-23T07:47:19;7.97;;;5.97;;
3627;SDS011;1830;49.000;12.074;2022-07-23T07:49:45;8.20;;;6.00;;
3627;SDS011;1830;49.000;12.074;2022-07-23T07:52:12;16.10;;;6.10;;
3627;SDS011;1830;49.000;12.074;2022-07-23T07:54:39;8.67;;;5.67;;
3627;SDS011;1830;49.000;12.074;2022-07-23T07:57:09;6.67;;;6.00;;
3627;SDS011;1830;49.000;12.074;2022-07-23T07:59:35;7.47;;;5.37;;
3627;SDS011;1830;49.000;12.074;2022-07-23T08:02:02;10.60;;;6.17;;
3627;SDS011;1830;49.000;12.074;2022-07-23T08:04:29;9.90;;;6.90;;
3627;SDS011;1830;49.000;12.074;2022-07-23T08:06:55;6.87;;;5.73;;
3627;SDS011;1830;49.000;12.074;2022-07-23T08:09:22;8.80;;;5.90;;
3627;SDS011;1830;49.000;12.074;2022-07-23T08:11:49;8.63;;;6.20;;
3627;SDS011;1830;49.000;12.074;2022-07-23T08:14:18;6.70;;;5.63;;
3627;SDS011;1830;49.000;12.074;2022-07-23T08:16:45;9.60;;;5.30;;
3627;SDS011;1830;49.000;12.074;2022-07-23T08:19:11;8.50;;;5.73;;
3627;SDS011;1830;49.000;12.074;2022-07-23T08:21:38;12.53;;;5.70;;
3627;SDS011;1830;49.000;12.074;2022-07-23T08:24:05;7.87;;;5.70;;
3627;SDS011;1830;49.000;12.074;2022-07-23T08:26:32;7.10;;;5.27;;
3627;SDS011;1830;49.000;12.074;2022-07-23T08:28:59;8.23;;;5.73;;
3627;SDS011;1830;49.000;12.074;2022-07-23T08:31:27;5.45;;;4.95;;
3627;SDS011;1830;49.000;12.074;2022-07-23T08:33:54;8.63;;;5.37;;
3627;SDS011;1830;49.000;12.074;2022-07-23T08:36:21;6.50;;;5.80;;
3627;SDS011;1830;49.000;12.074;2022-07-23T08:38:48;6.40;;;5.32;;
3627;SDS011;1830;49.000;12.074;2022-07-23T08:41:15;5.77;;;5.13;;
3627;SDS011;1830;49.000;12.074;2022-07-23T08:43:42;6.43;;;5.63;;
3627;SDS011;1830;49.000;12.074;2022-07-23T08:46:10;12.10;;;6.20;;
3627;SDS011;1830;49.000;12.074;2022-07-23T08:48:40;11.60;;;6.00;;
3627;SDS011;1830;49.000;12.074;2022-07-23T08:51:07;7.20;;;5.60;;
3627;SDS011;1830;49.000;12.074;2022-07-23T08:53:35;7.03;;;5.93;;
3627;SDS011;1830;49.000;12.074;2022-07-23T08:56:04;7.13;;;5.72;;
3627;SDS011;1830;49.000;12.074;2022-07-23T08:58:31;10.85;;;6.43;;
3627;SDS011;1830;49.000;12.074;2022-07-23T09:00:58;7.53;;;5.68;;
3627;SDS011;1830;49.000;12.074;2022-07-23T09:03:26;7.20;;;6.00;;
3627;SDS011;1830;49.000;12.074;2022-07-23T09:05:56;7.03;;;6.05;;
3627;SDS011;1830;49.000;12.074;2022-07-23T09:08:24;8.68;;;6.47;;
3627;SDS011;1830;49.000;12.074;2022-07-23T09:10:52;6.72;;;6.03;;
3627;SDS011;1830;49.000;12.074;2022-07-23T09:13:24;6.97;;;6.28;;
3627;SDS011;1830;49.000;12.074;2022-07-23T09:15:53;9.10;;;6.72;;
3627;SDS011;1830;49.000;12.074;2022-07-23T09:18:28;8.05;;;5.95;;
3627;SDS011;1830;49.000;12.074;2022-07-23T09:21:06;9.05;;;6.78;;
3627;SDS011;1830;49.000;12.074;2022-07-23T09:23:38;17.38;;;6.18;;
3627;SDS011;1830;49.000;12.074;2022-07-23T09:26:23;7.07;;;6.38;;
3627;SDS011;1830;49.000;12.074;2022-07-23T09:28:57;14.57;;;9.82;;
3627;SDS011;1830;49.000;12.074;2022-07-23T09:31:25;11.25;;;6.97;;
3627;SDS011;1830;49.000;12.074;2022-07-23T09:34:08;7.85;;;7.03;;
3627;SDS011;1830;49.000;12.074;2022-07-23T09:36:37;8.90;;;6.80;;
3627;SDS011;1830;49.000;12.074;2022-07-23T09:39:05;12.90;;;6.70;;
3627;SDS011;1830;49.000;12.074;2022-07-23T09:41:36;9.57;;;7.13;;
3627;SDS011;1830;49.000;12.074;2022-07-23T09:44:09;8.55;;;6.95;;
3627;SDS011;1830;49.000;12.074;2022-07-23T09:46:41;8.20;;;7.40;;
3627;SDS011;1830;49.000;12.074;2022-07-23T09:49:12;8.95;;;7.60;;
3627;SDS011;1830;49.000;12.074;2022-07-23T09:51:46;10.60;;;7.00;;
3627;SDS011;1830;49.000;12.074;2022-07-23T09:54:22;9.57;;;7.70;;
3627;SDS011;1830;49.000;12.074;2022-07-23T09:57:00;9.23;;;7.95;;
3627;SDS011;1830;49.000;12.074;2022-07-23T09:59:30;10.63;;;8.75;;
3627;SDS011;1830;49.000;12.074;2022-07-23T10:01:58;11.43;;;8.27;;
3627;SDS011;1830;49.000;12.074;2022-07-23T10:04:27;12.10;;;9.05;;
3627;SDS011;1830;49.000;12.074;2022-07-23T10:06:57;8.93;;;7.93;;
3627;SDS011;1830;49.000;12.074;2022-07-23T10:09:25;12.13;;;9.30;;
3627;SDS011;1830;49.000;12.074;2022-07-23T10:11:55;13.98;;;8.40;;
3627;SDS011;1830;49.000;12.074;2022-07-23T10:14:37;11.55;;;9.75;;
3627;SDS011;1830;49.000;12.074;2022-07-23T10:17:05;11.60;;;9.25;;
3627;SDS011;1830;49.000;12.074;2022-07-23T10:19:34;9.73;;;8.52;;
3627;SDS011;1830;49.000;12.074;2022-07-23T10:22:03;9.60;;;8.35;;
3627;SDS011;1830;49.000;12.074;2022-07-23T10:24:41;11.77;;;9.50;;
3627;SDS011;1830;49.000;12.074;2022-07-23T10:30:15;10.70;;;8.93;;
3627;SDS011;1830;49.000;12.074;2022-07-23T10:32:51;12.98;;;9.10;;
3627;SDS011;1830;49.000;12.074;2022-07-23T10:35:26;10.82;;;9.27;;
3627;SDS011;1830;49.000;12.074;2022-07-23T10:38:06;11.40;;;8.75;;
3627;SDS011;1830;49.000;12.074;2022-07-23T10:40:38;11.63;;;8.48;;
3627;SDS011;1830;49.000;12.074;2022-07-23T10:43:19;10.32;;;8.90;;
3627;SDS011;1830;49.000;12.074;2022-07-23T10:45:46;18.02;;;9.32;;
3627;SDS011;1830;49.000;12.074;2022-07-23T10:48:14;10.00;;;8.35;;
3627;SDS011;1830;49.000;12.074;2022-07-23T10:50:41;13.55;;;8.18;;
3627;SDS011;1830;49.000;12.074;2022-07-23T10:53:11;10.50;;;9.10;;
3627;SDS011;1830;49.000;12.074;2022-07-23T10:55:43;18.67;;;8.75;;
3627;SDS011;1830;49.000;12.074;2022-07-23T10:58:17;10.30;;;8.18;;
3627;SDS011;1830;49.000;12.074;2022-07-23T11:01:02;12.27;;;10.40;;
3627;SDS011;1830;49.000;12.074;2022-07-23T11:04:00;15.43;;;8.70;;
3627;SDS011;1830;49.000;12.074;2022-07-23T11:09:27;11.25;;;8.75;;
3627;SDS011;1830;49.000;12.074;2022-07-23T11:14:58;14.00;;;8.35;;
3627;SDS011;1830;49.000;12.074;2022-07-23T11:17:27;10.40;;;7.88;;
3627;SDS011;1830;49.000;12.074;2022-07-23T11:20:13;8.25;;;7.15;;
3627;SDS011;1830;49.000;12.074;2022-07-23T11:22:49;9.82;;;7.10;;
3627;SDS011;1830;49.000;12.074;2022-07-23T11:25:28;9.85;;;7.53;;
3627;SDS011;1830;49.000;12.074;2022-07-23T11:28:07;12.40;;;9.20;;
3627;SDS011;1830;49.000;12.074;2022-07-23T11:30:40;18.48;;;9.20;;
3627;SDS011;1830;49.000;12.074;2022-07-23T11:33:19;18.40;;;11.43;;
3627;SDS011;1830;49.000;12.074;2022-07-23T11:35:48;22.08;;;11.77;;
3627;SDS011;1830;49.000;12.074;2022-07-23T11:38:25;26.45;;;12.45;;
3627;SDS011;1830;49.000;12.074;2022-07-23T11:40:52;19.30;;;11.07;;
3627;SDS011;1830;49.000;12.074;2022-07-23T11:43:23;19.42;;;12.48;;
3627;SDS011;1830;49.000;12.074;2022-07-23T11:45:51;19.95;;;11.73;;
3627;SDS011;1830;49.000;12.074;2022-07-23T11:48:20;21.30;;;11.50;;
3627;SDS011;1830;49.000;12.074;2022-07-23T11:50:49;17.67;;;12.57;;
3627;SDS011;1830;49.000;12.074;2022-07-23T11:53:21;22.23;;;12.98;;
3627;SDS011;1830;49.000;12.074;2022-07-23T11:55:48;16.00;;;12.50;;
3627;SDS011;1830;49.000;12.074;2022-07-23T11:58:16;18.43;;;14.33;;
3627;SDS011;1830;49.000;12.074;2022-07-23T12:00:42;24.40;;;15.50;;
3627;SDS011;1830;49.000;12.074;2022-07-23T12:03:09;16.13;;;13.23;;
3627;SDS011;1830;49.000;12.074;2022-07-23T12:05:38;15.47;;;13.07;;
3627;SDS011;1830;49.000;12.074;2022-07-23T12:08:05;21.02;;;13.82;;
3627;SDS011;1830;49.000;12.074;2022-07-23T12:10:34;22.35;;;12.25;;
3627;SDS011;1830;49.000;12.074;2022-07-23T12:13:03;13.88;;;12.27;;
3627;SDS011;1830;49.000;12.074;2022-07-23T12:15:32;17.70;;;12.27;;
3627;SDS011;1830;49.000;12.074;2022-07-23T12:18:03;15.48;;;12.77;;
3627;SDS011;1830;49.000;12.074;2022-07-23T12:20:30;14.43;;;11.83;;
3627;SDS011;1830;49.000;12.074;2022-07-23T12:23:01;13.93;;;11.63;;
3627;SDS011;1830;49.000;12.074;2022-07-23T12:25:32;15.70;;;11.45;;
3627;SDS011;1830;49.000;12.074;2022-07-23T12:28:01;15.88;;;11.98;;
3627;SDS011;1830;49.000;12.074;2022-07-23T12:30:31;13.45;;;12.10;;
3627;SDS011;1830;49.000;12.074;2022-07-23T12:32:59;15.40;;;12.00;;
3627;SDS011;1830;49.000;12.074;2022-07-23T12:35:31;15.60;;;12.40;;
3627;SDS011;1830;49.000;12.074;2022-07-23T12:38:02;13.95;;;11.95;;
3627;SDS011;1830;49.000;12.074;2022-07-23T12:40:31;15.70;;;12.13;;
3627;SDS011;1830;49.000;12.074;2022-07-23T12:43:00;15.93;;;13.18;;
3627;SDS011;1830;49.000;12.074;2022-07-23T12:45:41;14.23;;;12.73;;
3627;SDS011;1830;49.000;12.074;2022-07-23T12:48:15;18.42;;;12.57;;
3627;SDS011;1830;49.000;12.074;2022-07-23T12:50:50;15.80;;;13.07;;
3627;SDS011;1830;49.000;12.074;2022-07-23T12:53:21;17.02;;;11.43;;
3627;SDS011;1830;49.000;12.074;2022-07-23T12:55:49;12.55;;;11.00;;
3627;SDS011;1830;49.000;12.074;2022-07-23T12:58:22;12.98;;;11.55;;
3627;SDS011;1830;49.000;12.074;2022-07-23T13:00:50;13.85;;;11.18;;
3627;SDS011;1830;49.000;12.074;2022-07-23T13:03:22;12.65;;;11.15;;
3627;SDS011;1830;49.000;12.074;2022-07-23T13:05:50;12.02;;;10.77;;
3627;SDS011;1830;49.000;12.074;2022-07-23T13:08:17;14.73;;;10.85;;
3627;SDS011;1830;49.000;12.074;2022-07-23T13:10:46;13.57;;;10.95;;
3627;SDS011;1830;49.000;12.074;2022-07-23T13:13:13;12.88;;;11.57;;
3627;SDS011;1830;49.000;12.074;2022-07-23T13:15:41;15.65;;;10.52;;
3627;SDS011;1830;49.000;12.074;2022-07-23T13:18:08;17.50;;;11.30;;
3627;SDS011;1830;49.000;12.074;2022-07-23T13:20:35;12.35;;;10.18;;
3627;SDS011;1830;49.000;12.074;2022-07-23T13:23:03;15.38;;;11.65;;
3627;SDS011;1830;49.000;12.074;2022-07-23T13:25:30;15.90;;;12.50;;
3627;SDS011;1830;49.000;12.074;2022-07-23T13:27:58;11.63;;;10.43;;
3627;SDS011;1830;49.000;12.074;2022-07-23T13:30:25;12.75;;;10.90;;
3627;SDS011;1830;49.000;12.074;2022-07-23T13:32:52;15.45;;;10.52;;
3627;SDS011;1830;49.000;12.074;2022-07-23T13:35:19;13.13;;;9.93;;
3627;SDS011;1830;49.000;12.074;2022-07-23T13:37:46;15.63;;;10.90;;
3627;SDS011;1830;49.000;12.074;2022-07-23T13:40:12;14.38;;;9.63;;
3627;SDS011;1830;49.000;12.074;2022-07-23T13:42:39;12.10;;;9.52;;
3627;SDS011;1830;49.000;12.074;2022-07-23T13:45:07;10.07;;;9.02;;
3627;SDS011;1830;49.000;12.074;2022-07-23T13:47:34;11.90;;;8.43;;
3627;SDS011;1830;49.000;12.074;2022-07-23T13:50:01;8.75;;;7.85;;
3627;SDS011;1830;49.000;12.074;2022-07-23T13:52:28;10.15;;;8.77;;
3627;SDS011;1830;49.000;12.074;2022-07-23T13:54:55;10.98;;;8.77;;
3627;SDS011;1830;49.000;12.074;2022-07-23T13:57:22;9.05;;;8.10;;
3627;SDS011;1830;49.000;12.074;2022-07-23T13:59:49;10.32;;;8.45;;
3627;SDS011;1830;49.000;12.074;2022-07-23T14:02:17;9.50;;;8.60;;
3627;SDS011;1830;49.000;12.074;2022-07-23T14:04:44;12.15;;;8.57;;
3627;SDS011;1830;49.000;12.074;2022-07-23T14:07:10;10.45;;;7.60;;
3627;SDS011;1830;49.000;12.074;2022-07-23T14:09:37;9.15;;;8.25;;
3627;SDS011;1830;49.000;12.074;2022-07-23T14:12:04;11.02;;;8.32;;
3627;SDS011;1830;49.000;12.074;2022-07-23T14:14:32;11.82;;;8.52;;
3627;SDS011;1830;49.000;12.074;2022-07-23T14:16:59;9.85;;;8.63;;
3627;SDS011;1830;49.000;12.074;2022-07-23T14:19:27;16.25;;;7.78;;
3627;SDS011;1830;49.000;12.074;2022-07-23T14:21:54;10.20;;;8.18;;
3627;SDS011;1830;49.000;12.074;2022-07-23T14:24:21;13.48;;;9.43;;
3627;SDS011;1830;49.000;12.074;2022-07-23T14:26:48;11.13;;;9.38;;
3627;SDS011;1830;49.000;12.074;2022-07-23T14:29:15;12.98;;;7.82;;
3627;SDS011;1830;49.000;12.074;2022-07-23T14:31:41;8.07;;;7.28;;
3627;SDS011;1830;49.000;12.074;2022-07-23T14:34:08;11.38;;;7.15;;
3627;SDS011;1830;49.000;12.074;2022-07-23T14:36:38;12.27;;;7.68;;
3627;SDS011;1830;49.000;12.074;2022-07-23T14:39:04;8.73;;;7.13;;
3627;SDS011;1830;49.000;12.074;2022-07-23T14:41:33;8.13;;;6.78;;
3627;SDS011;1830;49.000;12.074;2022-07-23T14:44:00;9.35;;;7.13;;
3627;SDS011;1830;49.000;12.074;2022-07-23T14:46:27;8.88;;;6.50;;
3627;SDS011;1830;49.000;12.074;2022-07-23T14:48:54;6.65;;;5.40;;
3627;SDS011;1830;49.000;12.074;2022-07-23T14:51:21;12.55;;;6.30;;
3627;SDS011;1830;49.000;12.074;2022-07-23T14:53:49;7.45;;;6.32;;
3627;SDS011;1830;49.000;12.074;2022-07-23T14:56:16;7.20;;;6.40;;
3627;SDS011;1830;49.000;12.074;2022-07-23T14:58:43;8.95;;;7.43;;
3627;SDS011;1830;49.000;12.074;2022-07-23T15:01:10;9.30;;;6.70;;